Time;durP1;ratioP1;P1;durP2;ratioP2;P2;SDS_P1;SDS_P2;PMS_P1;PMS_P2;Temp;Humidity;BMP_temperature;BMP_pressure;BME280_temperature;BME280_humidity;BME280_pressure;Samples;Min_cycle;Max_cycle;Signal;HPM_P1;HPM_P2
2021/06/05 00:01:55;;;;;;;30.35;25.02;;;20.80;99.90;;;;;;10461255;28;20048;-62
2021/06/05 00:06:57;;;;;;;34.40;27.65;;;20.80;99.90;;;;;;10460507;28;20052;-62
2021/06/05 00:11:58;;;;;;;28.48;24.88;;;20.70;99.90;;;;;;10459761;28;20051;-62
2021/06/05 00:17:01;;;;;;;25.00;22.30;;;20.60;99.90;;;;;;10459890;28;20528;-62
2021/06/05 00:22:04;;;;;;;29.73;24.20;;;20.60;99.90;;;;;;10460455;28;20052;-62
2021/06/05 00:27:06;;;;;;;26.55;22.30;;;20.70;99.90;;;;;;10459509;28;20052;-62
2021/06/05 00:32:08;;;;;;;27.20;22.67;;;20.70;99.90;;;;;;10460022;28;20072;-62
2021/06/05 00:37:10;;;;;;;43.70;29.27;;;20.60;99.90;;;;;;10459474;28;20049;-62
2021/06/05 00:42:12;;;;;;;34.83;27.65;;;20.60;99.90;;;;;;10459220;28;20048;-62
2021/06/05 00:47:14;;;;;;;26.00;21.98;;;20.50;99.90;;;;;;10458844;28;20385;-62
2021/06/05 00:52:23;;;;;;;25.00;22.42;;;20.40;99.90;;;;;;10458659;28;20503;-62
2021/06/05 00:57:25;;;;;;;25.20;22.38;;;20.50;99.90;;;;;;10457926;28;20045;-62
2021/06/05 01:02:27;;;;;;;45.22;30.75;;;20.40;99.90;;;;;;10458452;28;20051;-62
2021/06/05 01:07:32;;;;;;;29.00;24.58;;;20.40;99.90;;;;;;10457711;28;20075;-62
2021/06/05 01:12:48;;;;;;;25.48;22.83;;;20.30;99.90;;;;;;10458173;28;20049;-62
2021/06/05 01:18:07;;;;;;;30.35;23.50;;;20.30;99.90;;;;;;10456613;28;20045;-62
2021/06/05 01:23:08;;;;;;;30.58;26.15;;;20.10;99.90;;;;;;10456555;28;20041;-62
2021/06/05 01:28:21;;;;;;;27.30;23.70;;;20.10;99.90;;;;;;10457255;28;20481;-62
2021/06/05 01:33:26;;;;;;;33.33;27.25;;;20.00;99.90;;;;;;10457766;28;20047;-63
2021/06/05 01:38:31;;;;;;;32.47;27.90;;;19.90;99.90;;;;;;10456630;28;20036;-62
2021/06/05 01:43:34;;;;;;;30.73;25.88;;;19.80;99.90;;;;;;10456025;28;20116;-62
2021/06/05 01:48:36;;;;;;;27.42;23.25;;;19.80;99.90;;;;;;10456920;28;20041;-62
2021/06/05 01:53:47;;;;;;;32.55;25.52;;;19.70;99.90;;;;;;10456863;28;20041;-62
2021/06/05 01:58:50;;;;;;;30.73;25.50;;;19.70;99.90;;;;;;10456839;28;20049;-63
2021/06/05 02:03:53;;;;;;;30.52;27.20;;;19.70;99.90;;;;;;10456617;28;20041;-62
2021/06/05 02:08:57;;;;;;;30.10;24.48;;;19.70;99.90;;;;;;10456374;28;20049;-62
2021/06/05 02:14:07;;;;;;;37.10;28.38;;;19.60;99.90;;;;;;10455203;28;20051;-62
2021/06/05 02:19:20;;;;;;;28.37;25.30;;;19.60;99.90;;;;;;10456078;28;20048;-62
2021/06/05 02:24:36;;;;;;;40.00;30.42;;;19.60;99.90;;;;;;10455102;28;20041;-62
2021/06/05 02:29:41;;;;;;;41.28;31.00;;;19.70;99.90;;;;;;10454873;28;20045;-62
2021/06/05 02:34:45;;;;;;;33.30;28.00;;;19.70;99.90;;;;;;10456455;28;20049;-62
2021/06/05 02:39:47;;;;;;;28.20;25.30;;;19.70;99.90;;;;;;10462797;28;20476;-62
2021/06/05 02:44:57;;;;;;;52.50;36.80;;;19.50;99.90;;;;;;10463604;28;20052;-62
2021/06/05 02:50:06;;;;;;;34.42;28.83;;;19.60;99.90;;;;;;10462851;28;20047;-62
2021/06/05 02:55:11;;;;;;;31.77;28.00;;;19.60;99.90;;;;;;10463429;28;20044;-62
2021/06/05 03:00:38;;;;;;;34.10;30.17;;;19.70;99.90;;;;;;10463735;28;20044;-62
2021/06/05 03:05:41;;;;;;;44.95;36.40;;;19.70;99.90;;;;;;10462901;28;20056;-62
2021/06/05 03:10:43;;;;;;;42.90;36.28;;;19.70;99.90;;;;;;10462635;28;20480;-62
2021/06/05 03:15:47;;;;;;;44.55;36.53;;;19.70;99.90;;;;;;10462669;28;20096;-62
2021/06/05 03:20:52;;;;;;;65.68;50.05;;;19.70;99.90;;;;;;10462997;28;20095;-62
2021/06/05 03:25:56;;;;;;;65.10;49.83;;;19.70;99.90;;;;;;10462332;28;20044;-63
2021/06/05 03:30:59;;;;;;;63.63;51.53;;;19.70;99.90;;;;;;10462059;28;20049;-63
2021/06/05 03:36:01;;;;;;;64.45;54.53;;;19.70;99.90;;;;;;10461589;28;20045;-62
2021/06/05 03:41:03;;;;;;;78.13;61.63;;;19.80;99.90;;;;;;10460398;28;20044;-62
2021/06/05 03:46:05;;;;;;;103.57;75.03;;;19.70;99.90;;;;;;10460381;28;20055;-62
2021/06/05 03:51:09;;;;;;;90.28;73.15;;;19.70;99.90;;;;;;10461337;28;20040;-62
2021/06/05 03:56:11;;;;;;;104.38;78.53;;;19.70;99.90;;;;;;10460645;28;20051;-62
2021/06/05 04:01:20;;;;;;;100.72;78.10;;;19.70;99.90;;;;;;10461338;28;20041;-63
2021/06/05 04:06:25;;;;;;;88.22;67.78;;;19.70;99.90;;;;;;10460654;28;20049;-62
2021/06/05 04:11:28;;;;;;;119.15;84.03;;;19.60;99.90;;;;;;10460369;28;20056;-62
2021/06/05 04:16:31;;;;;;;102.53;77.57;;;19.50;99.90;;;;;;10460324;28;20044;-62
2021/06/05 04:21:33;;;;;;;150.25;94.97;;;19.60;99.90;;;;;;10459893;28;20480;-62
2021/06/05 04:26:35;;;;;;;150.05;97.28;;;19.50;99.90;;;;;;10475065;28;20376;-62
2021/06/05 04:31:37;;;;;;;155.88;95.80;;;19.40;99.90;;;;;;10459421;28;20041;-62
2021/06/05 04:36:40;;;;;;;114.78;81.78;;;19.20;99.90;;;;;;10459474;28;20045;-62
2021/06/05 04:41:42;;;;;;;130.82;87.68;;;19.30;99.90;;;;;;10459255;28;20045;-62
2021/06/05 04:46:44;;;;;;;114.82;81.30;;;19.10;99.90;;;;;;10458923;28;20041;-62
2021/06/05 04:51:46;;;;;;;182.73;104.65;;;19.30;99.90;;;;;;10458890;28;20045;-62
2021/06/05 04:56:50;;;;;;;148.90;92.38;;;19.30;99.90;;;;;;10458296;28;20041;-62
2021/06/05 05:01:52;;;;;;;126.65;81.72;;;19.20;99.90;;;;;;10459242;28;20057;-62
2021/06/05 05:06:54;;;;;;;118.88;80.65;;;19.10;99.90;;;;;;10458709;28;20041;-62
2021/06/05 05:11:56;;;;;;;106.90;71.85;;;19.10;99.90;;;;;;10456633;28;20591;-63
2021/06/05 05:16:58;;;;;;;115.53;76.13;;;19.10;99.90;;;;;;10457724;28;20044;-62
2021/06/05 05:22:00;;;;;;;128.43;79.57;;;19.20;99.90;;;;;;10457615;28;20388;-62
2021/06/05 05:27:03;;;;;;;144.30;80.70;;;19.10;99.90;;;;;;10456499;28;20045;-62
2021/06/05 05:32:06;;;;;;;149.25;88.63;;;19.00;99.90;;;;;;10457653;28;20055;-62
2021/06/05 05:37:08;;;;;;;120.97;74.75;;;19.10;99.90;;;;;;10456992;28;20155;-62
2021/06/05 05:42:10;;;;;;;177.63;94.05;;;19.00;99.90;;;;;;10457671;28;20053;-62
2021/06/05 05:47:11;;;;;;;148.63;83.60;;;19.00;99.90;;;;;;10457092;28;20044;-62
2021/06/05 05:52:13;;;;;;;146.40;86.35;;;19.00;99.90;;;;;;10456734;28;20041;-62
2021/06/05 05:57:16;;;;;;;165.82;92.43;;;19.00;99.90;;;;;;10456562;28;20362;-62
2021/06/05 06:02:18;;;;;;;133.35;79.25;;;19.10;99.90;;;;;;10456964;28;20045;-62
2021/06/05 06:07:20;;;;;;;130.68;76.63;;;19.10;99.90;;;;;;10456349;28;20045;-62
2021/06/05 06:12:22;;;;;;;134.13;79.68;;;19.00;99.90;;;;;;10462818;28;20063;-62
2021/06/05 06:17:24;;;;;;;141.50;81.28;;;19.10;99.90;;;;;;10464994;28;20084;-62
2021/06/05 06:22:26;;;;;;;136.10;77.15;;;19.10;99.90;;;;;;10464791;28;20072;-62
2021/06/05 06:27:28;;;;;;;109.50;66.18;;;19.10;99.90;;;;;;10464385;28;20041;-62
2021/06/05 06:32:30;;;;;;;139.02;79.20;;;19.20;99.90;;;;;;10464100;28;20044;-62
2021/06/05 06:37:32;;;;;;;121.25;72.32;;;19.20;99.90;;;;;;10464362;28;20037;-62
2021/06/05 06:42:34;;;;;;;116.38;69.68;;;19.20;99.90;;;;;;10463967;28;20056;-62
2021/06/05 06:47:38;;;;;;;153.32;83.13;;;19.30;99.90;;;;;;10464042;28;20041;-62
2021/06/05 06:52:40;;;;;;;110.75;65.45;;;19.30;99.90;;;;;;10462153;28;20045;-62
2021/06/05 06:57:42;;;;;;;102.32;63.67;;;19.20;99.90;;;;;;10463186;28;20041;-63
2021/06/05 07:02:44;;;;;;;112.00;67.10;;;19.30;99.90;;;;;;10462115;28;20049;-62
2021/06/05 07:07:46;;;;;;;114.93;68.53;;;19.30;99.90;;;;;;10462545;28;20045;-62
2021/06/05 07:12:48;;;;;;;103.03;63.40;;;19.30;99.90;;;;;;10463349;28;20045;-62
2021/06/05 07:17:50;;;;;;;103.50;62.20;;;19.40;99.90;;;;;;10462558;28;20037;-62
2021/06/05 07:22:52;;;;;;;85.20;52.70;;;19.40;99.90;;;;;;10461824;28;20477;-62
2021/06/05 07:27:56;;;;;;;85.15;51.55;;;19.40;99.90;;;;;;10462084;28;20389;-62
2021/06/05 07:32:58;;;;;;;80.43;51.42;;;19.40;99.90;;;;;;10460819;28;20055;-62
2021/06/05 07:38:02;;;;;;;66.07;41.55;;;19.30;99.90;;;;;;10461693;28;20504;-62
2021/06/05 07:43:05;;;;;;;66.03;44.78;;;19.30;99.90;;;;;;10461561;28;20056;-62
2021/06/05 07:48:07;;;;;;;69.85;44.00;;;19.40;99.90;;;;;;10461979;28;20073;-62
2021/06/05 07:53:09;;;;;;;68.38;42.15;;;19.50;99.90;;;;;;10461072;28;20041;-62
2021/06/05 07:58:12;;;;;;;61.97;40.80;;;19.60;99.90;;;;;;10461025;28;20048;-62
2021/06/05 08:03:14;;;;;;;60.65;40.42;;;19.60;99.90;;;;;;10460673;28;20048;-62
2021/06/05 08:08:16;;;;;;;62.92;39.97;;;19.60;99.90;;;;;;10459481;28;20088;-62
2021/06/05 08:13:19;;;;;;;61.55;40.13;;;19.50;99.90;;;;;;10459489;28;20469;-62
2021/06/05 08:18:22;;;;;;;48.15;34.80;;;19.70;99.90;;;;;;10460389;28;20044;-62
2021/06/05 08:23:32;;;;;;;49.85;35.90;;;19.80;99.90;;;;;;10460573;28;20067;-62
2021/06/05 08:28:34;;;;;;;39.35;30.05;;;19.80;99.90;;;;;;10460567;28;20056;-62
2021/06/05 08:33:37;;;;;;;39.40;29.80;;;19.90;99.90;;;;;;10458566;28;20423;-62
2021/06/05 08:38:40;;;;;;;38.67;29.92;;;19.80;99.90;;;;;;10459511;28;20041;-62
2021/06/05 08:44:04;;;;;;;38.25;30.00;;;19.80;99.90;;;;;;10459929;28;20098;-62
2021/06/05 08:49:34;;;;;;;37.83;30.30;;;19.80;99.90;;;;;;10458962;28;20485;-62
2021/06/05 08:54:56;;;;;;;41.10;29.45;;;19.90;99.90;;;;;;10459007;28;20055;-62
2021/06/05 09:00:18;;;;;;;37.00;27.40;;;20.00;99.90;;;;;;10457586;28;20052;-62
2021/06/05 09:05:35;;;;;;;37.45;30.27;;;20.00;99.90;;;;;;10458680;28;20037;-62
2021/06/05 09:10:37;;;;;;;36.72;28.30;;;20.00;99.90;;;;;;10456908;28;20533;-62
2021/06/05 09:15:39;;;;;;;28.88;25.00;;;19.90;99.90;;;;;;10457854;28;20041;-62
2021/06/05 09:20:46;;;;;;;27.05;24.23;;;19.90;99.90;;;;;;10457814;28;20063;-62
2021/06/05 09:25:48;;;;;;;28.50;22.17;;;20.10;99.90;;;;;;10456365;28;20067;-62
2021/06/05 09:31:21;;;;;;;23.88;21.33;;;20.40;99.90;;;;;;10457599;28;20381;-62
2021/06/05 09:36:29;;;;;;;23.67;20.27;;;20.40;99.90;;;;;;10457397;28;20048;-63
2021/06/05 09:41:34;;;;;;;21.75;19.42;;;20.50;99.90;;;;;;10457148;28;20045;-62
2021/06/05 09:46:36;;;;;;;19.55;17.55;;;20.40;99.90;;;;;;10456814;28;20474;-62
2021/06/05 09:51:42;;;;;;;18.67;16.75;;;20.40;99.90;;;;;;10456986;28;20084;-62
2021/06/05 09:56:48;;;;;;;17.15;15.35;;;20.30;99.90;;;;;;10456467;28;20583;-62
2021/06/05 10:01:58;;;;;;;21.85;19.30;;;20.50;99.90;;;;;;10455668;28;20047;-62
2021/06/05 10:07:02;;;;;;;20.67;18.65;;;20.30;99.90;;;;;;10456438;28;20049;-63
2021/06/05 10:12:21;;;;;;;22.17;19.98;;;20.20;99.90;;;;;;10456516;28;20049;-62
2021/06/05 10:17:40;;;;;;;23.63;20.70;;;20.20;99.90;;;;;;10455646;28;20120;-62
2021/06/05 10:22:43;;;;;;;23.45;20.98;;;19.70;99.90;;;;;;10456340;28;20053;-62
2021/06/05 10:27:47;;;;;;;21.13;18.92;;;19.90;99.90;;;;;;10438312;28;20507;-63
2021/06/05 10:32:50;;;;;;;21.35;18.55;;;20.10;99.90;;;;;;10438580;28;20048;-63
2021/06/05 10:38:08;;;;;;;21.90;17.98;;;20.00;99.90;;;;;;10454936;28;20045;-62
2021/06/05 10:43:15;;;;;;;19.08;16.85;;;20.10;99.90;;;;;;10456487;28;20057;-63
2021/06/05 10:48:29;;;;;;;18.40;16.45;;;20.20;99.90;;;;;;10455664;28;20056;-63
2021/06/05 10:53:43;;;;;;;17.48;15.63;;;20.10;99.90;;;;;;10455406;28;20528;-63
2021/06/05 10:58:50;;;;;;;14.52;13.15;;;20.20;99.90;;;;;;10460679;28;20389;-62
2021/06/05 11:04:05;;;;;;;22.15;17.02;;;20.20;99.90;;;;;;10462188;28;20055;-62
2021/06/05 11:09:31;;;;;;;27.80;21.60;;;20.00;99.90;;;;;;10461885;28;20048;-63
2021/06/05 11:14:36;;;;;;;28.17;21.35;;;19.80;99.90;;;;;;10463129;28;20045;-63
2021/06/05 11:19:48;;;;;;;37.45;26.65;;;19.90;99.90;;;;;;10462723;28;20111;-62
2021/06/05 11:25:08;;;;;;;36.60;25.73;;;19.90;99.90;;;;;;10462221;28;20504;-63
2021/06/05 11:30:21;;;;;;;33.42;26.15;;;19.60;99.90;;;;;;10462083;28;20465;-63
2021/06/05 11:35:54;;;;;;;31.60;23.48;;;19.70;99.90;;;;;;10461988;28;20041;-62
2021/06/05 11:41:11;;;;;;;31.80;23.55;;;19.70;99.90;;;;;;10462534;28;20045;-62
2021/06/05 11:46:22;;;;;;;31.75;24.38;;;19.80;99.90;;;;;;10461497;28;20052;-63
2021/06/05 11:51:30;;;;;;;33.47;24.60;;;19.80;99.90;;;;;;10461474;28;20088;-63
2021/06/05 11:56:57;;;;;;;29.58;25.23;;;19.80;99.90;;;;;;10461230;28;20053;-62
2021/06/05 12:02:10;;;;;;;30.73;23.83;;;19.90;99.90;;;;;;10461654;28;20047;-63
2021/06/05 12:07:42;;;;;;;30.73;22.85;;;19.90;99.90;;;;;;10459498;28;20420;-64
2021/06/05 12:12:48;;;;;;;29.73;24.85;;;19.90;99.90;;;;;;10456017;28;20481;-64
2021/06/05 12:18:05;;;;;;;29.95;24.50;;;19.90;99.90;;;;;;10460495;28;20040;-64
2021/06/05 12:23:24;;;;;;;32.55;27.13;;;19.80;99.90;;;;;;10459409;28;20048;-64
2021/06/05 12:28:30;;;;;;;29.23;24.52;;;19.90;99.90;;;;;;10459935;28;20041;-66
2021/06/05 12:33:34;;;;;;;33.30;28.83;;;19.90;99.90;;;;;;10460050;28;20051;-64
2021/06/05 12:38:40;;;;;;;32.25;28.83;;;19.70;99.90;;;;;;10459001;28;20428;-64
2021/06/05 12:43:44;;;;;;;35.58;30.58;;;19.80;99.90;;;;;;10458526;28;20053;-65
2021/06/05 12:48:47;;;;;;;30.52;27.48;;;20.00;99.90;;;;;;10457918;28;20048;-64
2021/06/05 12:54:09;;;;;;;31.17;28.08;;;20.30;99.90;;;;;;10459299;28;20045;-65
2021/06/05 12:59:31;;;;;;;38.42;31.75;;;20.40;99.90;;;;;;10458797;28;20048;-64
2021/06/05 13:04:38;;;;;;;34.80;31.33;;;20.00;99.90;;;;;;10458227;28;20072;-65
2021/06/05 13:09:44;;;;;;;36.75;32.85;;;20.20;99.90;;;;;;10458373;28;20045;-64
2021/06/05 13:15:05;;;;;;;36.40;31.52;;;20.20;99.90;;;;;;10457068;28;20053;-65
2021/06/05 13:20:19;;;;;;;29.97;26.87;;;20.40;99.90;;;;;;10457542;28;20048;-65
2021/06/05 13:25:28;;;;;;;34.45;30.90;;;20.50;99.90;;;;;;10458275;28;20045;-64
2021/06/05 13:30:34;;;;;;;42.67;37.67;;;20.50;99.90;;;;;;10456518;28;20040;-63
2021/06/05 13:35:45;;;;;;;38.80;34.67;;;20.40;99.90;;;;;;10457303;28;20037;-65
2021/06/05 13:40:48;;;;;;;43.17;38.53;;;20.30;99.90;;;;;;10457235;28;20055;-65
2021/06/05 13:45:50;;;;;;;43.25;38.72;;;20.30;99.90;;;;;;10439740;28;20499;-63
2021/06/05 13:50:52;;;;;;;42.83;38.20;;;20.00;99.90;;;;;;10457153;28;20072;-64
2021/06/05 13:55:59;;;;;;;44.80;39.13;;;20.20;99.90;;;;;;10456623;28;20071;-65
2021/06/05 14:01:02;;;;;;;44.70;39.58;;;20.10;99.90;;;;;;10457377;28;20045;-65
2021/06/05 14:06:05;;;;;;;42.15;36.92;;;20.20;99.90;;;;;;10456324;28;20040;-64
2021/06/05 14:11:09;;;;;;;47.13;40.42;;;20.10;99.90;;;;;;10456482;28;20059;-65
2021/06/05 14:16:11;;;;;;;37.60;32.63;;;20.10;99.90;;;;;;10455034;28;20037;-65
2021/06/05 14:21:15;;;;;;;35.45;28.85;;;20.00;99.90;;;;;;10456726;28;20048;-64
2021/06/05 14:26:18;;;;;;;31.33;25.90;;;20.20;99.90;;;;;;10456064;28;20055;-64
2021/06/05 14:31:20;;;;;;;27.27;23.55;;;20.20;99.90;;;;;;10458741;28;20036;-64
2021/06/05 14:36:22;;;;;;;23.50;20.02;;;20.20;99.90;;;;;;10463993;28;20128;-65
2021/06/05 14:41:25;;;;;;;23.00;20.48;;;20.40;99.90;;;;;;10464286;28;20045;-65
2021/06/05 14:46:27;;;;;;;21.90;18.83;;;20.40;99.90;;;;;;10463741;28;20045;-65
2021/06/05 14:51:29;;;;;;;21.73;19.40;;;20.70;99.90;;;;;;10463738;28;20041;-65
2021/06/05 14:56:32;;;;;;;24.33;18.92;;;20.80;99.90;;;;;;10463331;28;20048;-63
2021/06/05 15:01:34;;;;;;;26.77;20.30;;;20.60;99.90;;;;;;10463591;28;20040;-64
2021/06/05 15:06:38;;;;;;;25.90;21.05;;;20.50;99.90;;;;;;10463125;28;20092;-63
2021/06/05 15:11:41;;;;;;;27.75;19.75;;;20.40;99.90;;;;;;10463538;28;20045;-65
2021/06/05 15:16:43;;;;;;;31.55;23.23;;;20.40;99.90;;;;;;10462814;28;20051;-64
2021/06/05 15:21:45;;;;;;;32.17;23.67;;;20.10;99.90;;;;;;10462885;28;20041;-64
2021/06/05 15:26:47;;;;;;;33.83;24.45;;;20.10;99.90;;;;;;10462271;28;20499;-64
2021/06/05 15:31:49;;;;;;;34.65;24.48;;;20.20;99.90;;;;;;10462208;28;20049;-64
2021/06/05 15:36:52;;;;;;;33.28;24.33;;;20.10;99.90;;;;;;10462413;28;20132;-64
2021/06/05 15:41:54;;;;;;;35.63;25.60;;;20.20;99.90;;;;;;10461848;28;20048;-64
2021/06/05 15:46:59;;;;;;;34.00;25.10;;;20.00;99.90;;;;;;10461924;28;20048;-64
2021/06/05 15:52:06;;;;;;;40.85;27.58;;;20.10;99.90;;;;;;10461566;28;20045;-64
2021/06/05 15:57:08;;;;;;;38.05;26.20;;;20.10;99.90;;;;;;10459912;28;20392;-64
2021/06/05 16:02:10;;;;;;;35.88;25.08;;;19.90;99.90;;;;;;10461145;28;20045;-64
2021/06/05 16:07:12;;;;;;;34.08;23.15;;;19.80;99.90;;;;;;10460877;28;20052;-64
2021/06/05 16:12:14;;;;;;;33.38;24.95;;;19.80;99.90;;;;;;10460931;28;20053;-64
2021/06/05 16:17:16;;;;;;;37.28;25.85;;;19.80;99.90;;;;;;10460183;28;20489;-64
2021/06/05 16:22:18;;;;;;;30.13;24.95;;;19.70;99.90;;;;;;10460094;28;20496;-64
2021/06/05 16:27:22;;;;;;;34.10;26.85;;;19.50;99.90;;;;;;10460091;28;20055;-63
2021/06/05 16:32:24;;;;;;;32.53;24.85;;;19.40;99.90;;;;;;10458868;28;20056;-64
2021/06/05 16:37:26;;;;;;;32.22;27.13;;;19.50;99.90;;;;;;10459905;28;20071;-64
2021/06/05 16:42:28;;;;;;;31.23;27.00;;;19.60;99.90;;;;;;10459362;28;20389;-64
2021/06/05 16:47:30;;;;;;;31.15;26.40;;;19.40;99.90;;;;;;10459329;28;20064;-63
2021/06/05 16:52:32;;;;;;;35.53;27.20;;;19.40;99.90;;;;;;10458420;28;20079;-64
2021/06/05 16:57:35;;;;;;;35.13;27.15;;;19.50;99.90;;;;;;10457275;28;20045;-64
2021/06/05 17:02:37;;;;;;;37.58;29.20;;;19.30;99.90;;;;;;10458513;28;20045;-64
2021/06/05 17:07:48;;;;;;;;;;;19.30;99.90;;;;;;10459738;28;20072;-64
2021/06/05 17:12:51;;;;;;;37.97;28.05;;;19.20;99.90;;;;;;10457920;28;19917;-64
2021/06/05 17:17:53;;;;;;;38.22;28.60;;;19.30;99.90;;;;;;10457580;28;20393;-63
2021/06/05 17:22:56;;;;;;;41.42;29.23;;;19.00;99.90;;;;;;10458520;28;20051;-64
2021/06/05 17:27:58;;;;;;;41.20;26.70;;;19.00;99.90;;;;;;10457764;28;20037;-64
2021/06/05 17:33:02;;;;;;;42.15;30.15;;;19.00;99.90;;;;;;10457589;28;20044;-64
2021/06/05 17:38:04;;;;;;;43.40;27.60;;;18.90;99.90;;;;;;10457442;28;20041;-64
2021/06/05 17:43:11;;;;;;;37.53;27.60;;;18.80;99.90;;;;;;10457197;28;20045;-64
2021/06/05 17:48:18;;;;;;;40.55;27.17;;;18.90;99.90;;;;;;10457647;28;20060;-64
2021/06/05 17:53:21;;;;;;;44.35;28.08;;;18.90;99.90;;;;;;10456608;28;20381;-64
2021/06/05 17:58:29;;;;;;;39.22;25.48;;;18.80;99.90;;;;;;10457139;28;20075;-64
2021/06/05 18:03:54;;;;;;;40.20;27.20;;;18.80;99.90;;;;;;10456539;28;20045;-64
2021/06/05 18:08:57;;;;;;;45.15;28.80;;;18.70;99.90;;;;;;10454260;28;20063;-65
2021/06/05 18:13:59;;;;;;;40.53;24.73;;;18.60;99.90;;;;;;10453312;28;20373;-64
2021/06/05 18:19:04;;;;;;;44.15;26.75;;;18.50;99.90;;;;;;10454595;28;20041;-63
2021/06/05 18:24:07;;;;;;;50.50;28.52;;;18.60;99.90;;;;;;10454609;28;20080;-64
2021/06/05 18:29:09;;;;;;;48.83;28.65;;;18.30;99.90;;;;;;10454290;28;20052;-64
2021/06/05 18:34:11;;;;;;;41.15;27.20;;;18.40;99.90;;;;;;10454069;28;20481;-64
2021/06/05 18:39:15;;;;;;;48.00;30.08;;;18.40;99.90;;;;;;10454195;28;20504;-64
2021/06/05 18:44:23;;;;;;;56.30;30.42;;;18.30;99.90;;;;;;10454395;28;20045;-64
2021/06/05 18:49:26;;;;;;;51.88;30.40;;;18.20;99.90;;;;;;10454067;28;20071;-64
2021/06/05 18:54:28;;;;;;;49.38;28.05;;;18.00;99.90;;;;;;10453556;28;20041;-64
2021/06/05 18:59:32;;;;;;;56.08;29.80;;;17.90;99.90;;;;;;10453781;28;20043;-64
2021/06/05 19:04:35;;;;;;;49.00;29.15;;;17.90;99.90;;;;;;10453849;28;20052;-64
2021/06/05 19:09:44;;;;;;;46.35;28.40;;;17.80;99.90;;;;;;10449614;28;101616;-65
2021/06/05 19:14:46;;;;;;;48.28;29.33;;;17.80;99.90;;;;;;10455111;28;20048;-64
2021/06/05 19:19:48;;;;;;;56.55;31.90;;;17.60;99.90;;;;;;10460153;28;20041;-64
2021/06/05 19:24:51;;;;;;;48.10;29.40;;;17.60;99.90;;;;;;10462206;28;20044;-64
2021/06/05 19:29:53;;;;;;;53.65;30.15;;;17.50;99.90;;;;;;10462215;28;20496;-64
2021/06/05 19:34:55;;;;;;;49.70;29.65;;;17.50;99.90;;;;;;10462119;28;20052;-64
2021/06/05 19:39:57;;;;;;;46.10;28.48;;;17.20;99.90;;;;;;10462232;28;20041;-64
2021/06/05 19:44:59;;;;;;;47.53;26.70;;;17.20;99.90;;;;;;10462373;28;20049;-64
2021/06/05 19:50:01;;;;;;;54.20;30.42;;;17.30;99.90;;;;;;10461581;28;20393;-64
2021/06/05 19:55:06;;;;;;;57.22;30.75;;;17.20;99.90;;;;;;10461447;28;20433;-64
2021/06/05 20:00:18;;;;;;;52.20;32.22;;;17.20;99.90;;;;;;10461136;28;20045;-64
2021/06/05 20:05:21;;;;;;;52.60;31.73;;;17.20;99.90;;;;;;10461583;28;20053;-64
2021/06/05 20:10:26;;;;;;;50.22;32.25;;;17.30;99.90;;;;;;10460493;28;20405;-64
2021/06/05 20:15:39;;;;;;;48.53;31.77;;;17.20;99.90;;;;;;10460390;28;20108;-64
2021/06/05 20:20:45;;;;;;;49.90;31.10;;;17.10;99.90;;;;;;10460429;28;20076;-64
2021/06/05 20:25:47;;;;;;;41.92;29.60;;;17.00;99.90;;;;;;10460320;28;20045;-64
2021/06/05 20:30:49;;;;;;;45.20;32.45;;;17.00;99.90;;;;;;10459215;28;20044;-64
2021/06/05 20:35:52;;;;;;;45.30;29.40;;;16.90;99.90;;;;;;10459096;28;20045;-64
2021/06/05 20:40:57;;;;;;;45.97;29.65;;;16.90;99.90;;;;;;10459803;28;20123;-63
2021/06/05 20:46:06;;;;;;;43.20;27.77;;;16.90;99.90;;;;;;10474662;28;20049;-64
2021/06/05 20:51:14;;;;;;;42.13;28.80;;;16.70;99.90;;;;;;10458513;28;20041;-64
2021/06/05 20:56:16;;;;;;;44.15;27.58;;;16.80;99.90;;;;;;10458879;28;20401;-64
2021/06/05 21:01:25;;;;;;;41.70;27.35;;;16.70;99.90;;;;;;10458629;28;20045;-63
2021/06/05 21:06:30;;;;;;;39.20;27.05;;;16.70;99.90;;;;;;10457590;28;20055;-64
2021/06/05 21:11:32;;;;;;;44.97;27.00;;;16.70;99.90;;;;;;10458362;28;20060;-64
2021/06/05 21:16:36;;;;;;;42.15;26.17;;;16.60;99.90;;;;;;10457687;28;20045;-64
2021/06/05 21:21:40;;;;;;;42.63;27.88;;;16.70;99.90;;;;;;10458669;28;20059;-64
2021/06/05 21:26:43;;;;;;;47.38;29.02;;;16.70;99.90;;;;;;10457954;28;20041;-64
2021/06/05 21:31:47;;;;;;;36.28;25.02;;;16.60;99.90;;;;;;10456562;28;20055;-64
2021/06/05 21:36:49;;;;;;;42.33;26.70;;;16.60;99.90;;;;;;10458123;28;20051;-64
2021/06/05 21:41:51;;;;;;;46.50;28.20;;;16.70;99.90;;;;;;10456037;28;20049;-64
2021/06/05 21:46:54;;;;;;;45.83;29.48;;;16.70;99.90;;;;;;10456977;28;20044;-64
2021/06/05 21:51:58;;;;;;;41.72;27.52;;;16.40;99.90;;;;;;10456868;28;20047;-64
2021/06/05 21:57:00;;;;;;;45.92;28.40;;;16.40;99.90;;;;;;10456922;28;20041;-64
2021/06/05 22:02:02;;;;;;;45.67;30.00;;;16.40;99.90;;;;;;10456848;28;20056;-64
2021/06/05 22:07:04;;;;;;;40.38;27.02;;;16.50;99.90;;;;;;10456431;28;20483;-64
2021/06/05 22:12:12;;;;;;;38.78;25.98;;;16.40;99.90;;;;;;10456254;28;20053;-64
2021/06/05 22:17:21;;;;;;;39.55;25.55;;;16.30;99.90;;;;;;10456771;28;20068;-64
2021/06/05 22:22:33;;;;;;;47.13;28.80;;;16.20;99.90;;;;;;10456208;28;20107;-64
2021/06/05 22:27:39;;;;;;;49.17;28.85;;;16.20;99.90;;;;;;10456753;28;20041;-64
2021/06/05 22:32:42;;;;;;;41.97;26.30;;;16.20;99.90;;;;;;10456065;28;20049;-64
2021/06/05 22:37:45;;;;;;;46.22;28.88;;;16.30;99.90;;;;;;10456436;28;20041;-64
2021/06/05 22:42:46;;;;;;;47.35;27.02;;;16.20;99.90;;;;;;10455456;28;20049;-64
2021/06/05 22:47:48;;;;;;;44.80;29.27;;;16.30;99.90;;;;;;10454430;28;20496;-64
2021/06/05 22:52:51;;;;;;;53.30;30.92;;;16.30;99.90;;;;;;10459105;28;20045;-65
2021/06/05 22:57:53;;;;;;;48.67;32.33;;;16.30;99.90;;;;;;10464139;28;20385;-65
2021/06/05 23:02:56;;;;;;;50.40;32.38;;;16.30;99.90;;;;;;10463569;28;20059;-65
2021/06/05 23:08:00;;;;;;;47.33;30.40;;;16.20;99.90;;;;;;10463220;28;20473;-65
2021/06/05 23:13:07;;;;;;;51.88;31.42;;;16.20;99.90;;;;;;10461794;28;20572;-65
2021/06/05 23:18:08;;;;;;;58.47;35.10;;;16.20;99.90;;;;;;10463008;28;20052;-65
2021/06/05 23:23:15;;;;;;;55.03;32.65;;;16.20;99.90;;;;;;10462760;28;20051;-65
2021/06/05 23:28:18;;;;;;;50.72;34.85;;;16.20;99.90;;;;;;10462654;28;20052;-65
2021/06/05 23:33:25;;;;;;;44.70;30.42;;;16.20;99.90;;;;;;10462279;28;20041;-65
2021/06/05 23:38:35;;;;;;;55.40;34.13;;;16.20;99.90;;;;;;10462158;28;20420;-65
2021/06/05 23:43:37;;;;;;;55.13;36.22;;;16.20;99.90;;;;;;10460686;28;20060;-65
2021/06/05 23:48:44;;;;;;;55.63;36.92;;;16.30;99.90;;;;;;10461906;28;20041;-65
2021/06/05 23:53:46;;;;;;;52.35;36.25;;;16.20;99.90;;;;;;10461226;28;20045;-65
2021/06/05 23:58:48;;;;;;;52.03;34.45;;;16.10;99.90;;;;;;10461320;28;20053;-65
